EmailTwitter


Surface observations / Quebec / CYUL (71627)

Regions: Quebec | Canada | USA | Europe | France | UK | Elsewhere
Station
Display
Info & Location for CYUL (71627) | Help decoding METAR

Weather Conditions observed on 2019/09/22 at 22:00 UTC at MONTREAL INTL A, QB (CYUL)

Sky conditions: overcast.

Temperature: 25.0 Celsius.

Dewpoint: 19.0 Celsius.

Relative Humidity: 69%

Humidex: 32.

Winds: Southwest at 20 km/h or 11 knots.

Mean Sea level Pressure: 101.02 kilopascals.

Altimeter Setting (QNH): 101.02 kilopascals or 29.83 inches of mercury.

Horizontal visibility: 30.00 statute miles or 48.00 kilometers.

Height of the Ceiling: 5791 metres ( 19000 feet ).

Coded METAR:

CYUL 222200Z 22011KT 30SM FEW130 BKN190 OVC250 25/19 A2983 RMK AC1AC5CI2 SLP102

DENSITY ALT 1500FT=